This is the latest recevied weather packets stored in our database for station/object K7UHP. If no packets are shown the sender has not sent any weather packets the latest 10 day(s).
| Time | Temp. | Humidity | Pressure | Rain* | Wind** | Luminosity | Snow |
|---|---|---|---|---|---|---|---|
| 1777561815 | 10° C | 66% | 1019.7 hPa | 0 mm | - | - | - |
| 1777560615 | 9.44° C | 67% | 1019.7 hPa | 0 mm | - | - | - |
| 1777560015 | 10° C | 64% | 1019.7 hPa | 0 mm | - | - | - |
| 1777559415 | 9.44° C | 68% | 1019.7 hPa | 0 mm | - | - | - |
| 1777558813 | 8.89° C | 67% | 1019.7 hPa | 0 mm | - | - | - |
| 1777558213 | 8.33° C | 70% | 1019.7 hPa | 0 mm | - | - | - |
| 1777557612 | 7.22° C | 71% | 1019.7 hPa | 0 mm | - | - | - |
| 1777557011 | 6.67° C | 73% | 1019.7 hPa | 0 mm | - | - | - |
| 1777556410 | 6.11° C | 77% | 1019.8 hPa | 0 mm | - | - | - |
| 1777555810 | 5.56° C | 81% | 1019.7 hPa | 0 mm | - | - | - |
| 1777555209 | 5° C | 81% | 1019.6 hPa | 0 mm | - | - | - |
| 1777554608 | 5° C | 81% | 1019.6 hPa | 0 mm | - | - | - |
| 1777554007 | 5° C | 79% | 1019.4 hPa | 0 mm | - | - | - |
| 1777553407 | 5° C | 77% | 1019.3 hPa | 0 mm | - | - | - |
| 1777552806 | 5.56° C | 72% | 1019.1 hPa | 0 mm | - | - | - |
| 1777552205 | 5.56° C | 68% | 1019.1 hPa | 0 mm | - | - | - |
| 1777551604 | 6.11° C | 67% | 1019 hPa | 0 mm | - | - | - |
| 1777551003 | 6.11° C | 68% | 1019 hPa | 0 mm | - | - | - |
| 1777550402 | 6.11° C | 71% | 1019 hPa | 0 mm | - | - | - |
| 1777549802 | 6.11° C | 73% | 1018.9 hPa | 0 mm | - | - | - |
| 1777549201 | 6.11° C | 75% | 1019 hPa | 0 mm | - | - | - |
| 1777548600 | 6.11° C | 75% | 1019 hPa | 0 mm | - | - | - |
| 1777547999 | 6.67° C | 75% | 1019.1 hPa | 0 mm | - | - | - |
| 1777547398 | 6.67° C | 75% | 1019.1 hPa | 0 mm | - | - | - |
| 1777546797 | 6.67° C | 74% | 1019.2 hPa | 0 mm | - | - | - |
* Rain latest hour (hover to see other rain measurements)
** Current wind speed in m/s (hover to see current wind gust speed)